createdAt,value
2023-02-15T00:00:39.705Z,77.79
2023-02-15T00:03:09.742Z,78.25
2023-02-15T00:05:40.454Z,77.85
2023-02-15T00:08:11.642Z,78.54
2023-02-15T00:10:41.736Z,78.13
2023-02-15T00:13:11.582Z,78.41
2023-02-15T00:15:41.836Z,77.49
2023-02-15T00:18:11.655Z,78.71
2023-02-15T00:20:41.451Z,78.89
2023-02-15T00:23:11.545Z,80.28
2023-02-15T00:25:41.647Z,79.17
2023-02-15T00:28:13.525Z,79.23
2023-02-15T00:30:43.032Z,79.19
2023-02-15T00:33:14.773Z,80.03
2023-02-15T00:35:44.326Z,80.03
2023-02-15T00:38:15.062Z,80.04
2023-02-15T00:40:44.910Z,80.01
2023-02-15T00:43:14.680Z,79.67
2023-02-15T00:45:46.570Z,80.13
2023-02-15T00:48:16.458Z,80.14
2023-02-15T00:50:54.118Z,80.39
2023-02-15T00:53:24.513Z,80.78
2023-02-15T00:55:55.508Z,81.33
2023-02-15T00:58:25.405Z,81.11
2023-02-15T01:00:55.874Z,80.72
2023-02-15T01:03:26.533Z,80.58
2023-02-15T01:05:56.374Z,80.85
2023-02-15T01:08:26.183Z,81.04
2023-02-15T01:10:56.083Z,80.80
2023-02-15T01:13:27.215Z,81.68
2023-02-15T01:15:57.758Z,81.33
2023-02-15T01:18:30.750Z,81.63
2023-02-15T01:21:02.383Z,81.63
2023-02-15T01:23:32.222Z,82.00
2023-02-15T01:26:04.362Z,81.56
2023-02-15T01:28:35.982Z,82.15
2023-02-15T01:31:11.446Z,81.68
2023-02-15T01:33:41.591Z,81.68
2023-02-15T01:36:13.546Z,82.35
2023-02-15T01:38:43.383Z,81.78
2023-02-15T01:41:24.479Z,81.82
2023-02-15T01:44:00.832Z,81.92
2023-02-15T01:46:39.695Z,81.55
2023-02-15T01:49:21.608Z,81.90
2023-02-15T01:51:53.783Z,82.00
2023-02-15T01:54:30.916Z,81.86
2023-02-15T01:57:06.825Z,81.66
2023-02-15T01:59:39.879Z,81.60
2023-02-15T02:02:13.810Z,81.94
2023-02-15T02:04:52.022Z,81.57
2023-02-15T02:07:27.753Z,82.08
2023-02-15T02:09:57.641Z,82.33
2023-02-15T02:12:28.006Z,82.05
2023-02-15T02:14:58.712Z,81.91
2023-02-15T02:17:37.693Z,81.70
2023-02-15T02:20:21.206Z,81.23
2023-02-15T02:23:21.076Z,82.41
2023-02-15T02:25:57.795Z,82.19
2023-02-15T02:28:54.524Z,82.52
2023-02-15T02:31:43.361Z,82.11
2023-02-15T02:34:21.043Z,82.14
2023-02-15T02:36:56.890Z,82.33
2023-02-15T02:39:47.730Z,82.47
2023-02-15T02:42:23.553Z,82.08
2023-02-15T02:45:12.720Z,82.07
2023-02-15T02:47:45.722Z,82.06
2023-02-15T02:50:20.543Z,82.21
2023-02-15T02:52:53.056Z,82.39
2023-02-15T02:55:43.754Z,82.13
2023-02-15T02:58:27.312Z,82.37
2023-02-15T03:01:14.313Z,82.81
2023-02-15T03:03:50.759Z,82.62
2023-02-15T03:06:27.442Z,83.27
2023-02-15T03:09:06.360Z,82.75
2023-02-15T03:11:37.069Z,82.46
2023-02-15T03:14:08.158Z,82.31
2023-02-15T03:16:40.060Z,82.70
2023-02-15T03:19:16.049Z,82.18
2023-02-15T03:21:53.652Z,82.18
2023-02-15T03:24:38.433Z,82.37
2023-02-15T03:27:11.593Z,82.46
2023-02-15T03:29:42.034Z,83.24
2023-02-15T03:32:16.367Z,83.13
2023-02-15T03:34:47.015Z,82.94
2023-02-15T03:37:27.953Z,83.07
2023-02-15T03:40:27.284Z,83.12
2023-02-15T03:43:12.269Z,83.04
2023-02-15T03:45:46.060Z,83.39
2023-02-15T03:48:16.404Z,83.91
2023-02-15T03:51:04.280Z,83.94
2023-02-15T03:53:34.302Z,84.11
2023-02-15T03:56:04.530Z,83.82
2023-02-15T03:58:52.188Z,84.34
2023-02-15T04:01:48.440Z,84.22
2023-02-15T04:04:21.392Z,83.36
2023-02-15T04:06:51.569Z,83.76
2023-02-15T04:09:38.782Z,83.41
2023-02-15T04:12:08.704Z,83.98
2023-02-15T04:14:56.442Z,84.02
2023-02-15T04:17:26.199Z,83.82
2023-02-15T04:20:13.749Z,83.06
2023-02-15T04:23:01.322Z,84.92
2023-02-15T04:25:31.092Z,84.92
2023-02-15T04:28:01.270Z,84.23
2023-02-15T04:30:31.190Z,84.17
2023-02-15T04:33:01.426Z,83.82
2023-02-15T04:35:32.608Z,83.99
2023-02-15T04:38:02.644Z,84.12
2023-02-15T04:40:32.312Z,84.53
2023-02-15T04:43:02.389Z,84.67
2023-02-15T04:45:32.341Z,84.20
2023-02-15T04:48:02.430Z,84.14
2023-02-15T04:50:32.214Z,84.65
2023-02-15T04:53:02.318Z,84.85
2023-02-15T04:55:31.908Z,84.27
2023-02-15T04:58:01.988Z,84.56
2023-02-15T05:00:31.894Z,84.50
2023-02-15T05:03:01.972Z,84.66
2023-02-15T05:05:31.789Z,84.90
2023-02-15T05:08:01.956Z,84.10
2023-02-15T05:10:31.806Z,84.59
2023-02-15T05:13:01.900Z,84.35
2023-02-15T05:15:31.976Z,84.51
2023-02-15T05:18:02.443Z,84.83
2023-02-15T05:20:32.208Z,83.98
2023-02-15T05:23:02.064Z,83.98
2023-02-15T05:25:49.677Z,85.13
2023-02-15T05:28:22.247Z,85.14
2023-02-15T05:30:54.681Z,85.65
2023-02-15T05:33:24.552Z,85.46
2023-02-15T05:35:54.664Z,85.10
2023-02-15T05:38:24.289Z,85.46
2023-02-15T05:40:54.921Z,85.55
2023-02-15T05:43:25.350Z,85.48
2023-02-15T05:45:56.469Z,85.23
2023-02-15T05:48:28.403Z,84.84
2023-02-15T05:51:06.984Z,84.69
2023-02-15T05:53:39.314Z,84.20
2023-02-15T05:56:12.946Z,84.21
2023-02-15T05:58:43.673Z,84.88
2023-02-15T06:01:16.518Z,84.69
2023-02-15T06:03:47.300Z,85.05
2023-02-15T06:06:17.951Z,85.51
2023-02-15T06:08:48.085Z,85.18
2023-02-15T06:11:17.907Z,84.75
2023-02-15T06:13:47.671Z,84.84
2023-02-15T06:16:18.474Z,84.96
2023-02-15T06:21:28.193Z,84.47
2023-02-15T06:23:58.504Z,83.94
2023-02-15T06:26:28.232Z,84.12
2023-02-15T06:28:58.305Z,83.91
2023-02-15T06:31:28.318Z,84.30
2023-02-15T06:33:59.572Z,84.05
2023-02-15T06:36:32.996Z,84.98
2023-02-15T06:39:04.148Z,84.51
2023-02-15T06:41:33.711Z,85.54
2023-02-15T06:44:03.578Z,84.80
2023-02-15T06:46:36.097Z,85.12
2023-02-15T06:49:04.962Z,85.61
2023-02-15T06:51:35.166Z,85.05
2023-02-15T06:54:05.069Z,85.23
2023-02-15T06:56:34.860Z,85.05
2023-02-15T06:59:04.418Z,85.05
2023-02-15T07:01:34.274Z,85.41
2023-02-15T07:04:04.097Z,85.30
2023-02-15T07:06:36.669Z,85.16
2023-02-15T07:09:06.828Z,85.69
2023-02-15T07:11:54.461Z,85.60
2023-02-15T07:14:24.588Z,86.30
2023-02-15T07:16:54.471Z,86.27
2023-02-15T07:19:24.519Z,86.88
2023-02-15T07:21:54.608Z,86.88
2023-02-15T07:24:24.317Z,86.14
2023-02-15T07:26:54.537Z,86.99
2023-02-15T07:29:24.592Z,86.82
2023-02-15T07:31:54.563Z,86.07
2023-02-15T07:34:24.433Z,85.49
2023-02-15T07:36:54.766Z,85.41
2023-02-15T07:39:24.875Z,85.30
2023-02-15T07:41:54.510Z,85.50
2023-02-15T07:44:24.686Z,84.92
2023-02-15T07:46:56.234Z,85.20
2023-02-15T07:49:27.825Z,85.69
2023-02-15T07:51:57.584Z,84.91
2023-02-15T07:54:27.673Z,84.91
2023-02-15T07:56:57.546Z,84.60
2023-02-15T07:59:28.164Z,84.60
2023-02-15T08:01:58.360Z,84.42
2023-02-15T08:04:28.440Z,84.45
2023-02-15T08:06:58.292Z,84.07
2023-02-15T08:09:28.389Z,84.24
2023-02-15T08:11:58.204Z,83.36
2023-02-15T08:14:29.966Z,83.26
2023-02-15T08:17:03.755Z,82.68
2023-02-15T08:19:35.623Z,83.28
2023-02-15T08:22:07.837Z,83.09
2023-02-15T08:24:40.044Z,82.72
2023-02-15T08:27:12.012Z,82.86
2023-02-15T08:29:43.211Z,82.10
2023-02-15T08:32:14.674Z,82.54
2023-02-15T08:34:44.967Z,82.17
2023-02-15T08:37:15.025Z,82.13
2023-02-15T08:39:46.138Z,81.62
2023-02-15T08:42:16.380Z,81.76
2023-02-15T08:44:47.488Z,81.53
2023-02-15T08:47:17.951Z,81.77
2023-02-15T08:49:48.121Z,81.77
2023-02-15T08:52:17.917Z,81.29
2023-02-15T08:54:48.046Z,81.03
2023-02-15T08:57:17.908Z,80.73
2023-02-15T08:59:48.099Z,80.30
2023-02-15T09:02:18.082Z,80.17
2023-02-15T09:04:47.884Z,79.90
2023-02-15T09:07:19.358Z,78.89
2023-02-15T09:09:49.246Z,79.00
2023-02-15T09:12:18.817Z,78.54
2023-02-15T09:14:48.749Z,79.94
2023-02-15T09:17:18.511Z,78.40
2023-02-15T09:19:49.965Z,79.28
2023-02-15T09:22:19.809Z,77.61
2023-02-15T09:24:49.662Z,76.74
2023-02-15T09:27:19.513Z,76.79
2023-02-15T09:29:49.867Z,76.57
2023-02-15T09:32:19.732Z,76.07
2023-02-15T09:34:49.785Z,76.07
2023-02-15T09:37:19.561Z,75.81
2023-02-15T09:39:49.382Z,76.64
2023-02-15T09:42:24.751Z,76.58
2023-02-15T09:45:09.615Z,74.52
2023-02-15T09:48:02.981Z,72.87
2023-02-15T09:50:36.766Z,72.61
2023-02-15T09:53:36.652Z,72.61
2023-02-15T09:56:37.980Z,74.05
2023-02-15T09:59:16.518Z,71.29
2023-02-15T10:02:20.527Z,72.30
2023-02-15T10:05:08.461Z,72.44
2023-02-15T10:07:56.206Z,69.70
2023-02-15T10:10:31.917Z,69.63
2023-02-15T10:13:20.624Z,69.12
2023-02-15T10:15:59.091Z,70.24
2023-02-15T10:19:06.354Z,68.14
2023-02-15T10:21:59.791Z,67.47
2023-02-15T10:24:48.906Z,68.53
2023-02-15T10:27:22.024Z,66.70
2023-02-15T10:30:10.059Z,66.86
2023-02-15T10:33:02.277Z,65.79
2023-02-15T10:35:52.930Z,67.43
2023-02-15T10:41:21.294Z,63.64
2023-02-15T10:44:12.148Z,64.58
2023-02-15T10:47:11.447Z,64.71
2023-02-15T10:50:01.418Z,65.25
2023-02-15T10:52:53.072Z,63.51
2023-02-15T10:55:31.218Z,63.05
2023-02-15T10:58:21.638Z,61.59
2023-02-15T11:00:55.834Z,64.69
2023-02-15T11:03:55.582Z,61.79
2023-02-15T11:06:27.056Z,61.98
2023-02-15T11:09:09.847Z,59.66
2023-02-15T11:11:43.379Z,59.18
2023-02-15T11:14:21.705Z,59.52
2023-02-15T11:16:57.290Z,60.59
2023-02-15T11:19:32.439Z,59.38
2023-02-15T11:22:05.276Z,58.89
2023-02-15T11:24:38.009Z,58.37
2023-02-15T11:27:16.331Z,59.01
2023-02-15T11:30:08.996Z,58.56
2023-02-15T11:32:43.973Z,58.45
2023-02-15T11:35:16.758Z,57.01
2023-02-15T11:37:55.075Z,56.37
2023-02-15T11:40:33.565Z,56.73
2023-02-15T11:43:09.006Z,56.03
2023-02-15T11:45:39.510Z,56.58
2023-02-15T11:48:14.851Z,56.29
2023-02-15T11:50:46.035Z,55.53
2023-02-15T11:53:28.659Z,54.83
2023-02-15T11:55:58.665Z,53.95
2023-02-15T11:58:34.987Z,53.95
2023-02-15T12:01:24.515Z,55.05
2023-02-15T12:04:03.381Z,55.15
2023-02-15T12:06:36.223Z,53.47
2023-02-15T12:09:09.104Z,53.41
2023-02-15T12:11:41.603Z,53.44
2023-02-15T12:14:15.833Z,52.00
2023-02-15T12:16:51.241Z,54.66
2023-02-15T12:19:38.464Z,52.74
2023-02-15T12:22:29.703Z,51.69
2023-02-15T12:25:03.110Z,51.17
2023-02-15T12:27:37.918Z,51.02
2023-02-15T12:30:11.795Z,51.04
2023-02-15T12:32:56.346Z,51.39
2023-02-15T12:35:34.938Z,51.96
2023-02-15T12:38:08.404Z,51.24
2023-02-15T12:40:41.007Z,50.33
2023-02-15T12:43:22.149Z,50.33
2023-02-15T12:45:51.828Z,49.58
2023-02-15T12:48:22.459Z,49.95
2023-02-15T12:50:55.297Z,48.02
2023-02-15T12:56:12.669Z,49.67
2023-02-15T12:58:43.650Z,50.29
2023-02-15T13:01:22.412Z,50.29
2023-02-15T13:04:06.735Z,49.33
2023-02-15T13:06:38.770Z,48.50
2023-02-15T13:09:20.210Z,48.80
2023-02-15T13:11:50.169Z,49.88
2023-02-15T13:14:29.543Z,50.45
2023-02-15T13:17:02.337Z,49.59
2023-02-15T13:19:35.882Z,49.72
2023-02-15T13:22:12.756Z,48.75
2023-02-15T13:24:45.218Z,48.67
2023-02-15T13:27:21.057Z,49.05
2023-02-15T13:29:59.531Z,47.75
2023-02-15T13:32:36.578Z,47.59
2023-02-15T13:35:10.351Z,48.62
2023-02-15T13:38:01.009Z,47.77
2023-02-15T13:40:36.577Z,46.33
2023-02-15T13:43:25.956Z,48.63
2023-02-15T13:46:07.910Z,48.47
2023-02-15T13:48:55.454Z,47.14
2023-02-15T13:51:34.145Z,47.10
2023-02-15T13:54:29.766Z,46.94
2023-02-15T13:57:02.873Z,45.74
2023-02-15T13:59:39.671Z,46.97
2023-02-15T14:02:46.250Z,48.15
2023-02-15T14:05:18.870Z,47.89
2023-02-15T14:08:11.086Z,48.55
2023-02-15T14:10:43.975Z,47.38
2023-02-15T14:13:22.560Z,49.68
2023-02-15T14:16:07.399Z,48.96
2023-02-15T14:18:54.909Z,49.95
2023-02-15T14:21:30.288Z,49.02
2023-02-15T14:24:05.595Z,49.39
2023-02-15T14:26:49.790Z,48.23
2023-02-15T14:29:46.744Z,48.36
2023-02-15T14:32:37.378Z,49.38
2023-02-15T14:35:17.287Z,47.91
2023-02-15T14:38:22.915Z,48.67
2023-02-15T14:41:05.354Z,48.58
2023-02-15T14:43:57.767Z,48.23
2023-02-15T14:46:38.926Z,49.58
2023-02-15T14:49:30.867Z,48.97
2023-02-15T14:52:07.469Z,49.32
2023-02-15T14:54:40.293Z,49.37
2023-02-15T14:57:12.929Z,49.47
2023-02-15T14:59:59.892Z,49.38
2023-02-15T15:02:44.782Z,49.31
2023-02-15T15:05:23.587Z,49.73
2023-02-15T15:07:58.959Z,49.29
2023-02-15T15:10:43.382Z,49.40
2023-02-15T15:13:37.053Z,49.06
2023-02-15T15:16:34.206Z,49.46
2023-02-15T15:19:07.185Z,49.74
2023-02-15T15:21:57.739Z,50.04
2023-02-15T15:24:42.209Z,50.85
2023-02-15T15:27:47.008Z,50.12
2023-02-15T15:30:24.663Z,51.03
2023-02-15T15:33:00.333Z,51.56
2023-02-15T15:35:47.422Z,51.42
2023-02-15T15:38:20.384Z,51.73
2023-02-15T15:41:25.815Z,51.88
2023-02-15T15:44:10.466Z,51.74
2023-02-15T15:47:03.029Z,52.33
2023-02-15T15:49:35.800Z,52.36
2023-02-15T15:52:21.748Z,52.29
2023-02-15T15:54:54.403Z,52.78
2023-02-15T15:57:32.912Z,53.42
2023-02-15T16:00:04.496Z,52.89
2023-02-15T16:02:36.151Z,52.89
2023-02-15T16:05:11.825Z,53.59
2023-02-15T16:07:43.566Z,54.25
2023-02-15T16:10:26.170Z,53.26
2023-02-15T16:12:57.422Z,53.34
2023-02-15T16:15:31.306Z,54.02
2023-02-15T16:18:02.212Z,54.98
2023-02-15T16:20:37.777Z,54.99
2023-02-15T16:23:21.933Z,55.06
2023-02-15T16:26:20.002Z,54.91
2023-02-15T16:28:53.809Z,55.31
2023-02-15T16:31:27.738Z,55.74
2023-02-15T16:33:57.866Z,55.01
2023-02-15T16:36:31.775Z,55.01
2023-02-15T16:39:10.482Z,56.17
2023-02-15T16:41:40.734Z,56.20
2023-02-15T16:44:22.483Z,55.72
2023-02-15T16:46:55.286Z,56.22
2023-02-15T16:49:28.249Z,55.95
2023-02-15T16:52:00.948Z,56.63
2023-02-15T16:54:32.926Z,55.96
2023-02-15T16:57:03.415Z,55.96
2023-02-15T16:59:36.646Z,56.36
2023-02-15T17:02:09.835Z,56.74
2023-02-15T17:04:40.214Z,57.38
2023-02-15T17:07:22.622Z,57.50
2023-02-15T17:10:00.016Z,57.54
2023-02-15T17:12:50.998Z,56.90
2023-02-15T17:15:35.161Z,57.03
2023-02-15T17:18:14.933Z,58.02
2023-02-15T17:20:45.887Z,57.94
2023-02-15T17:23:36.594Z,57.26
2023-02-15T17:26:26.665Z,57.85
2023-02-15T17:29:01.932Z,58.08
2023-02-15T17:31:34.891Z,57.97
2023-02-15T17:34:06.920Z,58.15
2023-02-15T17:36:36.927Z,58.09
2023-02-15T17:39:12.243Z,58.36
2023-02-15T17:41:44.820Z,58.36
2023-02-15T17:44:16.392Z,58.39
2023-02-15T17:46:46.265Z,58.32
2023-02-15T17:49:29.245Z,59.02
2023-02-15T17:51:59.911Z,59.11
2023-02-15T17:54:50.316Z,59.67
2023-02-15T17:57:20.216Z,60.26
2023-02-15T18:00:08.255Z,59.95
2023-02-15T18:03:01.944Z,60.06
2023-02-15T18:05:49.351Z,60.10
2023-02-15T18:08:39.881Z,60.47
2023-02-15T18:11:28.835Z,60.56
2023-02-15T18:14:00.143Z,60.94
2023-02-15T18:16:33.472Z,61.84
2023-02-15T18:19:04.917Z,61.55
2023-02-15T18:21:35.177Z,62.04
2023-02-15T18:24:06.496Z,61.96
2023-02-15T18:26:36.333Z,61.40
2023-02-15T18:29:06.206Z,61.73
2023-02-15T18:31:36.714Z,61.30
2023-02-15T18:34:09.994Z,61.74
2023-02-15T18:36:45.655Z,61.76
2023-02-15T18:39:30.401Z,61.95
2023-02-15T18:42:00.236Z,62.21
2023-02-15T18:44:30.154Z,63.03
2023-02-15T18:46:59.932Z,62.95
2023-02-15T18:49:29.701Z,62.68
2023-02-15T18:51:59.695Z,63.10
2023-02-15T18:54:29.737Z,62.84
2023-02-15T18:57:04.615Z,63.24
2023-02-15T18:59:34.715Z,63.69
2023-02-15T19:02:14.510Z,64.59
2023-02-15T19:04:45.315Z,63.77
2023-02-15T19:07:21.102Z,63.69
2023-02-15T19:09:54.433Z,63.52
2023-02-15T19:12:24.661Z,63.92
2023-02-15T19:14:56.599Z,63.93
2023-02-15T19:17:26.763Z,64.43
2023-02-15T19:19:56.724Z,64.38
2023-02-15T19:22:31.543Z,64.69
2023-02-15T19:25:04.035Z,64.87
2023-02-15T19:27:36.365Z,64.93
2023-02-15T19:30:23.144Z,64.95
2023-02-15T19:32:53.479Z,64.96
2023-02-15T19:35:26.452Z,65.38
2023-02-15T19:37:59.133Z,65.87
2023-02-15T19:40:31.628Z,65.82
2023-02-15T19:43:01.654Z,65.82
2023-02-15T19:45:33.362Z,65.86
2023-02-15T19:48:03.797Z,65.73
2023-02-15T19:50:35.270Z,65.95
2023-02-15T19:53:05.258Z,67.25
2023-02-15T19:55:37.892Z,66.61
2023-02-15T19:58:14.841Z,66.33
2023-02-15T20:00:44.273Z,66.33
2023-02-15T20:03:15.580Z,66.69
2023-02-15T20:05:46.856Z,66.45
2023-02-15T20:08:22.928Z,67.45
2023-02-15T20:10:52.466Z,67.21
2023-02-15T20:13:22.712Z,67.73
2023-02-15T20:15:53.070Z,68.41
2023-02-15T20:18:23.200Z,68.41
2023-02-15T20:20:55.937Z,68.12
2023-02-15T20:23:31.938Z,68.62
2023-02-15T20:26:04.032Z,68.65
2023-02-15T20:28:33.801Z,68.77
2023-02-15T20:31:04.102Z,69.10
2023-02-15T20:33:34.288Z,68.86
2023-02-15T20:36:06.708Z,69.50
2023-02-15T20:38:36.343Z,68.76
2023-02-15T20:41:24.158Z,68.92
2023-02-15T20:43:54.016Z,68.66
2023-02-15T20:46:23.565Z,68.78
2023-02-15T20:48:53.518Z,69.33
2023-02-15T20:51:23.712Z,69.29
2023-02-15T20:53:53.627Z,68.66
2023-02-15T20:56:25.604Z,68.96
2023-02-15T20:58:55.699Z,69.68
2023-02-15T21:01:25.669Z,69.68
2023-02-15T21:03:55.702Z,68.89
2023-02-15T21:06:25.568Z,69.49
2023-02-15T21:08:55.805Z,69.73
2023-02-15T21:11:25.822Z,69.61
2023-02-15T21:13:56.117Z,69.59
2023-02-15T21:16:26.069Z,69.51
2023-02-15T21:18:55.937Z,69.65
2023-02-15T21:21:26.271Z,69.65
2023-02-15T21:23:56.190Z,69.93
2023-02-15T21:26:25.696Z,69.69
2023-02-15T21:28:56.953Z,69.50
2023-02-15T21:31:28.599Z,69.72
2023-02-15T21:33:58.580Z,70.46
2023-02-15T21:36:28.802Z,69.59
2023-02-15T21:38:58.600Z,69.12
2023-02-15T21:41:46.911Z,69.04
2023-02-15T21:44:40.469Z,70.03
2023-02-15T21:47:39.630Z,69.90
2023-02-15T21:50:34.373Z,70.27
2023-02-15T21:53:05.785Z,70.71
2023-02-15T21:55:35.647Z,70.95
2023-02-15T21:58:08.097Z,70.48
2023-02-15T22:00:38.081Z,70.48
2023-02-15T22:03:07.980Z,70.01
2023-02-15T22:05:38.639Z,70.48
2023-02-15T22:08:14.797Z,70.69
2023-02-15T22:10:46.030Z,70.65
2023-02-15T22:13:19.987Z,70.64
2023-02-15T22:15:49.814Z,70.96
2023-02-15T22:18:28.126Z,71.31
2023-02-15T22:20:59.832Z,71.71
2023-02-15T22:23:29.777Z,71.41
2023-02-15T22:26:02.172Z,70.97
2023-02-15T22:28:39.973Z,71.90
2023-02-15T22:33:46.248Z,72.20
2023-02-15T22:36:27.833Z,72.16
2023-02-15T22:38:58.322Z,72.16
2023-02-15T22:41:30.696Z,72.85
2023-02-15T22:44:00.583Z,73.02
2023-02-15T22:46:30.268Z,73.02
2023-02-15T22:49:00.407Z,72.84
2023-02-15T22:51:31.248Z,73.13
2023-02-15T22:54:01.171Z,72.73
2023-02-15T22:56:39.610Z,74.01
2023-02-15T22:59:24.513Z,73.26
2023-02-15T23:01:54.281Z,72.92
2023-02-15T23:04:29.974Z,72.81
2023-02-15T23:07:00.872Z,73.25
2023-02-15T23:09:30.695Z,73.07
2023-02-15T23:12:00.585Z,73.00
2023-02-15T23:14:35.672Z,73.48
2023-02-15T23:17:05.774Z,73.22
2023-02-15T23:19:35.829Z,73.19
2023-02-15T23:22:20.393Z,72.69
2023-02-15T23:24:53.474Z,72.75
2023-02-15T23:27:41.056Z,73.06
2023-02-15T23:30:16.302Z,72.59
2023-02-15T23:32:46.234Z,73.61
2023-02-15T23:35:17.890Z,73.76
2023-02-15T23:37:48.217Z,73.80
2023-02-15T23:40:38.560Z,73.03
2023-02-15T23:43:10.403Z,73.11
2023-02-15T23:45:40.940Z,73.06
2023-02-15T23:48:32.809Z,73.23
2023-02-15T23:51:03.847Z,72.98
2023-02-15T23:53:34.455Z,73.24
2023-02-15T23:56:07.756Z,73.50
2023-02-15T23:58:40.909Z,73.84
